sensor_id;sensor_type;location;lat;lon;timestamp;pressure;altitude;pressure_sealevel;temperature;humidity
15678;BME280;7939;50.814;6.368;2023-09-08T00:01:16;100084.72;;;24.29;53.04
15678;BME280;7939;50.814;6.368;2023-09-08T00:03:43;100084.81;;;24.28;52.85
15678;BME280;7939;50.814;6.368;2023-09-08T00:06:09;100084.81;;;24.28;52.96
15678;BME280;7939;50.814;6.368;2023-09-08T00:08:36;100073.59;;;24.26;53.08
15678;BME280;7939;50.814;6.368;2023-09-08T00:11:02;100080.59;;;24.25;52.87
15678;BME280;7939;50.814;6.368;2023-09-08T00:13:31;100079.91;;;24.21;52.75
15678;BME280;7939;50.814;6.368;2023-09-08T00:15:58;100075.63;;;24.20;53.04
15678;BME280;7939;50.814;6.368;2023-09-08T00:18:24;100073.91;;;24.19;52.94
15678;BME280;7939;50.814;6.368;2023-09-08T00:20:51;100077.44;;;24.18;52.78
15678;BME280;7939;50.814;6.368;2023-09-08T00:23:17;100073.22;;;24.16;52.74
15678;BME280;7939;50.814;6.368;2023-09-08T00:25:44;100082.00;;;24.15;53.01
15678;BME280;7939;50.814;6.368;2023-09-08T00:28:10;100068.16;;;24.13;53.04
15678;BME280;7939;50.814;6.368;2023-09-08T00:30:38;100072.53;;;24.12;52.77
15678;BME280;7939;50.814;6.368;2023-09-08T00:33:05;100065.72;;;24.10;53.14
15678;BME280;7939;50.814;6.368;2023-09-08T00:35:34;100074.47;;;24.09;52.71
15678;BME280;7939;50.814;6.368;2023-09-08T00:38:00;100066.69;;;24.07;52.86
15678;BME280;7939;50.814;6.368;2023-09-08T00:40:27;100071.16;;;24.05;52.80
15678;BME280;7939;50.814;6.368;2023-09-08T00:42:54;100069.47;;;24.04;52.99
15678;BME280;7939;50.814;6.368;2023-09-08T00:45:20;100063.50;;;24.02;53.01
15678;BME280;7939;50.814;6.368;2023-09-08T00:47:49;100062.66;;;24.02;53.08
15678;BME280;7939;50.814;6.368;2023-09-08T00:50:15;100065.41;;;23.99;52.84
15678;BME280;7939;50.814;6.368;2023-09-08T00:52:42;100061.13;;;23.98;53.23
15678;BME280;7939;50.814;6.368;2023-09-08T00:55:09;100061.19;;;23.96;52.95
15678;BME280;7939;50.814;6.368;2023-09-08T00:57:35;100064.75;;;23.95;52.90
15678;BME280;7939;50.814;6.368;2023-09-08T01:00:02;100063.94;;;23.93;53.21
15678;BME280;7939;50.814;6.368;2023-09-08T01:02:31;100060.59;;;23.91;53.13
15678;BME280;7939;50.814;6.368;2023-09-08T01:04:59;100058.06;;;23.89;53.17
15678;BME280;7939;50.814;6.368;2023-09-08T01:07:27;100055.50;;;23.88;53.13
15678;BME280;7939;50.814;6.368;2023-09-08T01:09:56;100059.03;;;23.87;53.26
15678;BME280;7939;50.814;6.368;2023-09-08T01:12:28;100058.28;;;23.85;52.92
15678;BME280;7939;50.814;6.368;2023-09-08T01:14:55;100056.59;;;23.84;53.25
15678;BME280;7939;50.814;6.368;2023-09-08T01:17:21;100056.69;;;23.82;52.87
15678;BME280;7939;50.814;6.368;2023-09-08T01:19:48;100062.88;;;23.80;53.13
15678;BME280;7939;50.814;6.368;2023-09-08T01:22:35;100063.91;;;23.77;52.97
15678;BME280;7939;50.814;6.368;2023-09-08T01:25:21;100051.78;;;23.76;53.24
15678;BME280;7939;50.814;6.368;2023-09-08T01:27:50;100056.19;;;23.74;52.82
15678;BME280;7939;50.814;6.368;2023-09-08T01:30:17;100059.72;;;23.73;53.04
15678;BME280;7939;50.814;6.368;2023-09-08T01:32:45;100055.44;;;23.72;53.21
15678;BME280;7939;50.814;6.368;2023-09-08T01:35:13;100053.75;;;23.71;53.21
15678;BME280;7939;50.814;6.368;2023-09-08T01:37:40;100053.75;;;23.71;53.05
15678;BME280;7939;50.814;6.368;2023-09-08T01:40:08;100052.97;;;23.69;53.05
15678;BME280;7939;50.814;6.368;2023-09-08T01:42:37;100051.28;;;23.68;52.94
15678;BME280;7939;50.814;6.368;2023-09-08T01:45:05;100047.91;;;23.66;52.91
15678;BME280;7939;50.814;6.368;2023-09-08T01:47:32;100051.53;;;23.63;53.00
15678;BME280;7939;50.814;6.368;2023-09-08T01:49:59;100054.19;;;23.62;53.39
15678;BME280;7939;50.814;6.368;2023-09-08T01:52:26;100052.47;;;23.61;53.21
15678;BME280;7939;50.814;6.368;2023-09-08T01:54:53;100048.28;;;23.58;53.22
15678;BME280;7939;50.814;6.368;2023-09-08T01:57:19;100050.88;;;23.58;52.98
15678;BME280;7939;50.814;6.368;2023-09-08T01:59:47;100050.09;;;23.56;53.17
15678;BME280;7939;50.814;6.368;2023-09-08T02:02:14;100044.13;;;23.54;53.32
15678;BME280;7939;50.814;6.368;2023-09-08T02:04:41;100040.66;;;23.54;52.84
15678;BME280;7939;50.814;6.368;2023-09-08T02:07:07;100044.28;;;23.51;53.26
15678;BME280;7939;50.814;6.368;2023-09-08T02:09:36;100045.16;;;23.50;53.49
15678;BME280;7939;50.814;6.368;2023-09-08T02:12:04;100037.44;;;23.49;53.42
15678;BME280;7939;50.814;6.368;2023-09-08T02:14:30;100040.97;;;23.48;53.30
15678;BME280;7939;50.814;6.368;2023-09-08T02:16:58;100040.22;;;23.46;53.27
15678;BME280;7939;50.814;6.368;2023-09-08T02:19:25;100031.53;;;23.45;53.22
15678;BME280;7939;50.814;6.368;2023-09-08T02:21:52;100036.81;;;23.43;53.55
15678;BME280;7939;50.814;6.368;2023-09-08T02:24:18;100030.81;;;23.41;53.22
15678;BME280;7939;50.814;6.368;2023-09-08T02:26:45;100025.69;;;23.40;53.61
15678;BME280;7939;50.814;6.368;2023-09-08T02:29:11;100030.91;;;23.40;53.16
15678;BME280;7939;50.814;6.368;2023-09-08T02:31:39;100027.50;;;23.38;53.26
15678;BME280;7939;50.814;6.368;2023-09-08T02:34:07;100029.28;;;23.37;53.53
15678;BME280;7939;50.814;6.368;2023-09-08T02:36:34;100029.28;;;23.37;53.38
15678;BME280;7939;50.814;6.368;2023-09-08T02:39:00;100021.53;;;23.36;53.54
15678;BME280;7939;50.814;6.368;2023-09-08T02:41:27;100019.84;;;23.35;53.42
15678;BME280;7939;50.814;6.368;2023-09-08T02:43:53;100017.31;;;23.33;53.62
15678;BME280;7939;50.814;6.368;2023-09-08T02:46:20;100018.25;;;23.32;53.65
15678;BME280;7939;50.814;6.368;2023-09-08T02:48:46;100022.69;;;23.30;53.52
15678;BME280;7939;50.814;6.368;2023-09-08T02:51:14;100024.53;;;23.28;53.51
15678;BME280;7939;50.814;6.368;2023-09-08T02:53:41;100021.06;;;23.28;53.78
15678;BME280;7939;50.814;6.368;2023-09-08T02:56:07;100022.00;;;23.27;54.02
15678;BME280;7939;50.814;6.368;2023-09-08T02:58:35;100025.53;;;23.26;53.73
15678;BME280;7939;50.814;6.368;2023-09-08T03:01:11;100021.28;;;23.23;53.62
15678;BME280;7939;50.814;6.368;2023-09-08T03:03:39;100014.38;;;23.22;53.59
15678;BME280;7939;50.814;6.368;2023-09-08T03:06:06;100028.34;;;23.21;53.98
15678;BME280;7939;50.814;6.368;2023-09-08T03:08:34;100024.09;;;23.19;54.04
15678;BME280;7939;50.814;6.368;2023-09-08T03:11:03;100030.16;;;23.19;53.92
15678;BME280;7939;50.814;6.368;2023-09-08T03:13:29;100023.25;;;23.18;53.89
15678;BME280;7939;50.814;6.368;2023-09-08T03:15:56;100018.22;;;23.15;53.98
15678;BME280;7939;50.814;6.368;2023-09-08T03:18:23;100026.88;;;23.15;53.85
15678;BME280;7939;50.814;6.368;2023-09-08T03:20:50;100022.63;;;23.13;54.15
15678;BME280;7939;50.814;6.368;2023-09-08T03:23:17;100021.78;;;23.12;53.87
15678;BME280;7939;50.814;6.368;2023-09-08T03:25:45;100020.13;;;23.11;54.08
15678;BME280;7939;50.814;6.368;2023-09-08T03:28:11;100011.53;;;23.09;54.21
15678;BME280;7939;50.814;6.368;2023-09-08T03:30:38;100016.75;;;23.09;54.15
15678;BME280;7939;50.814;6.368;2023-09-08T03:33:04;100014.22;;;23.08;53.83
15678;BME280;7939;50.814;6.368;2023-09-08T03:35:31;100020.28;;;23.08;54.02
15678;BME280;7939;50.814;6.368;2023-09-08T03:37:57;100015.19;;;23.05;53.86
15678;BME280;7939;50.814;6.368;2023-09-08T03:40:24;100012.66;;;23.04;54.23
15678;BME280;7939;50.814;6.368;2023-09-08T03:42:52;100002.25;;;23.04;53.85
15678;BME280;7939;50.814;6.368;2023-09-08T03:45:19;100015.34;;;23.02;54.26
15678;BME280;7939;50.814;6.368;2023-09-08T03:47:45;100016.28;;;23.01;54.14
15678;BME280;7939;50.814;6.368;2023-09-08T03:50:12;100006.72;;;23.00;54.28
15678;BME280;7939;50.814;6.368;2023-09-08T03:52:39;100009.44;;;22.99;54.40
15678;BME280;7939;50.814;6.368;2023-09-08T03:55:06;100012.03;;;22.99;54.66
15678;BME280;7939;50.814;6.368;2023-09-08T03:57:33;100015.63;;;22.96;54.23
15678;BME280;7939;50.814;6.368;2023-09-08T04:00:00;100013.03;;;22.96;54.33
15678;BME280;7939;50.814;6.368;2023-09-08T04:02:29;100008.78;;;22.94;54.33
15678;BME280;7939;50.814;6.368;2023-09-08T04:04:56;100012.25;;;22.94;54.51
15678;BME280;7939;50.814;6.368;2023-09-08T04:07:22;100012.31;;;22.93;54.46
15678;BME280;7939;50.814;6.368;2023-09-08T04:09:49;100007.19;;;22.91;54.53
15678;BME280;7939;50.814;6.368;2023-09-08T04:12:15;100016.78;;;22.91;54.34
15678;BME280;7939;50.814;6.368;2023-09-08T04:14:42;100020.28;;;22.90;54.70
15678;BME280;7939;50.814;6.368;2023-09-08T04:17:10;100001.25;;;22.87;54.74
15678;BME280;7939;50.814;6.368;2023-09-08T04:19:37;100009.13;;;22.86;54.59
15678;BME280;7939;50.814;6.368;2023-09-08T04:22:03;100006.59;;;22.84;54.25
15678;BME280;7939;50.814;6.368;2023-09-08T04:24:34;100011.81;;;22.84;55.00
15678;BME280;7939;50.814;6.368;2023-09-08T04:27:01;100017.09;;;22.83;54.38
15678;BME280;7939;50.814;6.368;2023-09-08T04:29:28;100010.22;;;22.82;54.60
15678;BME280;7939;50.814;6.368;2023-09-08T04:31:54;100007.59;;;22.82;54.56
15678;BME280;7939;50.814;6.368;2023-09-08T04:34:22;100012.84;;;22.80;54.73
15678;BME280;7939;50.814;6.368;2023-09-08T04:36:49;100013.78;;;22.79;55.03
15678;BME280;7939;50.814;6.368;2023-09-08T04:39:15;100007.72;;;22.79;54.64
15678;BME280;7939;50.814;6.368;2023-09-08T04:41:42;100013.78;;;22.79;54.24
15678;BME280;7939;50.814;6.368;2023-09-08T04:44:09;100010.41;;;22.77;54.76
15678;BME280;7939;50.814;6.368;2023-09-08T04:46:35;100013.09;;;22.76;54.72
15678;BME280;7939;50.814;6.368;2023-09-08T04:49:02;100010.53;;;22.74;54.92
15678;BME280;7939;50.814;6.368;2023-09-08T04:51:30;100008.84;;;22.73;55.15
15678;BME280;7939;50.814;6.368;2023-09-08T04:53:57;100009.78;;;22.72;54.66
15678;BME280;7939;50.814;6.368;2023-09-08T04:56:23;100018.50;;;22.71;54.68
15678;BME280;7939;50.814;6.368;2023-09-08T04:58:50;100019.47;;;22.69;54.90
15678;BME280;7939;50.814;6.368;2023-09-08T05:01:17;100014.28;;;22.69;55.03
15678;BME280;7939;50.814;6.368;2023-09-08T05:03:44;100008.22;;;22.68;54.95
15678;BME280;7939;50.814;6.368;2023-09-08T05:06:11;100010.06;;;22.66;55.09
15678;BME280;7939;50.814;6.368;2023-09-08T05:08:40;100011.81;;;22.66;54.98
15678;BME280;7939;50.814;6.368;2023-09-08T05:11:06;100018.78;;;22.65;54.99
15678;BME280;7939;50.814;6.368;2023-09-08T05:13:34;100016.28;;;22.64;55.16
15678;BME280;7939;50.814;6.368;2023-09-08T05:16:00;100016.31;;;22.62;55.48
15678;BME280;7939;50.814;6.368;2023-09-08T05:18:36;100018.06;;;22.61;55.21
15678;BME280;7939;50.814;6.368;2023-09-08T05:21:03;100020.75;;;22.60;54.93
15678;BME280;7939;50.814;6.368;2023-09-08T05:23:29;100021.69;;;22.59;55.44
15678;BME280;7939;50.814;6.368;2023-09-08T05:25:57;100019.06;;;22.59;55.43
15678;BME280;7939;50.814;6.368;2023-09-08T05:28:24;100019.16;;;22.57;55.19
15678;BME280;7939;50.814;6.368;2023-09-08T05:30:50;100020.03;;;22.56;55.45
15678;BME280;7939;50.814;6.368;2023-09-08T05:33:17;100020.97;;;22.55;55.43
15678;BME280;7939;50.814;6.368;2023-09-08T05:35:44;100020.97;;;22.55;55.55
15678;BME280;7939;50.814;6.368;2023-09-08T05:38:12;100021.97;;;22.53;55.55
15678;BME280;7939;50.814;6.368;2023-09-08T05:40:38;100026.25;;;22.54;55.73
15678;BME280;7939;50.814;6.368;2023-09-08T05:43:06;100029.78;;;22.53;55.52
15678;BME280;7939;50.814;6.368;2023-09-08T05:45:33;100025.47;;;22.52;55.46
15678;BME280;7939;50.814;6.368;2023-09-08T05:47:59;100026.41;;;22.51;55.49
15678;BME280;7939;50.814;6.368;2023-09-08T05:50:26;100030.78;;;22.50;55.51
15678;BME280;7939;50.814;6.368;2023-09-08T05:52:53;100029.06;;;22.49;55.58
15678;BME280;7939;50.814;6.368;2023-09-08T05:55:19;100036.88;;;22.49;55.59
15678;BME280;7939;50.814;6.368;2023-09-08T05:57:46;100035.19;;;22.48;55.91
15678;BME280;7939;50.814;6.368;2023-09-08T06:00:15;100036.94;;;22.48;55.74
15678;BME280;7939;50.814;6.368;2023-09-08T06:02:41;100036.09;;;22.47;55.71
15678;BME280;7939;50.814;6.368;2023-09-08T06:05:08;100035.25;;;22.47;56.07
15678;BME280;7939;50.814;6.368;2023-09-08T06:07:35;100044.00;;;22.46;55.85
15678;BME280;7939;50.814;6.368;2023-09-08T06:10:01;100047.44;;;22.46;55.82
15678;BME280;7939;50.814;6.368;2023-09-08T06:12:28;100043.16;;;22.45;56.18
15678;BME280;7939;50.814;6.368;2023-09-08T06:14:55;100050.13;;;22.45;55.91
15678;BME280;7939;50.814;6.368;2023-09-08T06:17:23;100042.31;;;22.45;56.20
15678;BME280;7939;50.814;6.368;2023-09-08T06:19:49;100044.06;;;22.44;55.79
15678;BME280;7939;50.814;6.368;2023-09-08T06:22:16;100042.31;;;22.45;55.83
15678;BME280;7939;50.814;6.368;2023-09-08T06:24:42;100038.84;;;22.44;56.02
15678;BME280;7939;50.814;6.368;2023-09-08T06:27:09;100048.34;;;22.45;55.67
15678;BME280;7939;50.814;6.368;2023-09-08T06:29:36;100044.00;;;22.46;56.27
15678;BME280;7939;50.814;6.368;2023-09-08T06:32:05;100043.19;;;22.44;56.39
15678;BME280;7939;50.814;6.368;2023-09-08T06:34:33;100048.47;;;22.42;56.23
15678;BME280;7939;50.814;6.368;2023-09-08T06:37:00;100044.94;;;22.43;56.39
15678;BME280;7939;50.814;6.368;2023-09-08T06:39:27;100040.59;;;22.44;55.87
15678;BME280;7939;50.814;6.368;2023-09-08T06:41:54;100051.88;;;22.44;55.92
15678;BME280;7939;50.814;6.368;2023-09-08T06:44:21;100042.31;;;22.45;56.27
15678;BME280;7939;50.814;6.368;2023-09-08T06:46:47;100046.66;;;22.44;56.33
15678;BME280;7939;50.814;6.368;2023-09-08T06:49:14;100038.84;;;22.44;56.79
15678;BME280;7939;50.814;6.368;2023-09-08T06:51:42;100044.91;;;22.45;56.61
15678;BME280;7939;50.814;6.368;2023-09-08T06:54:08;100042.31;;;22.45;56.78
15678;BME280;7939;50.814;6.368;2023-09-08T06:56:35;100043.16;;;22.45;56.49
15678;BME280;7939;50.814;6.368;2023-09-08T06:59:02;100050.13;;;22.45;56.54
15678;BME280;7939;50.814;6.368;2023-09-08T07:01:29;100046.59;;;22.46;56.78
15678;BME280;7939;50.814;6.368;2023-09-08T07:03:55;100051.81;;;22.46;56.87
15678;BME280;7939;50.814;6.368;2023-09-08T07:06:22;100043.91;;;22.47;57.18
15678;BME280;7939;50.814;6.368;2023-09-08T07:08:50;100050.88;;;22.47;56.87
15678;BME280;7939;50.814;6.368;2023-09-08T07:11:16;100053.41;;;22.48;56.84
15678;BME280;7939;50.814;6.368;2023-09-08T07:13:43;100056.03;;;22.48;56.81
15678;BME280;7939;50.814;6.368;2023-09-08T07:16:10;100059.47;;;22.49;56.80
15678;BME280;7939;50.814;6.368;2023-09-08T07:18:36;100055.94;;;22.50;56.46
15678;BME280;7939;50.814;6.368;2023-09-08T07:21:03;100056.81;;;22.50;57.21
15678;BME280;7939;50.814;6.368;2023-09-08T07:23:30;100062.03;;;22.50;56.78
15678;BME280;7939;50.814;6.368;2023-09-08T07:25:58;100068.06;;;22.51;56.44
15678;BME280;7939;50.814;6.368;2023-09-08T07:28:25;100061.09;;;22.51;57.26
15678;BME280;7939;50.814;6.368;2023-09-08T07:30:50;100063.63;;;22.53;56.75
15678;BME280;7939;50.814;6.368;2023-09-08T07:33:17;100055.81;;;22.53;56.91
15678;BME280;7939;50.814;6.368;2023-09-08T07:35:44;100057.59;;;22.52;57.00
15678;BME280;7939;50.814;6.368;2023-09-08T07:38:11;100063.56;;;22.54;57.49
15678;BME280;7939;50.814;6.368;2023-09-08T07:40:37;100057.44;;;22.55;57.12
15678;BME280;7939;50.814;6.368;2023-09-08T07:43:05;100060.88;;;22.56;57.35
15678;BME280;7939;50.814;6.368;2023-09-08T07:45:32;100060.00;;;22.57;57.38
15678;BME280;7939;50.814;6.368;2023-09-08T07:47:58;100055.53;;;22.59;57.80
15678;BME280;7939;50.814;6.368;2023-09-08T07:50:27;100060.59;;;22.62;57.59
15678;BME280;7939;50.814;6.368;2023-09-08T07:52:55;100062.31;;;22.63;56.96
15678;BME280;7939;50.814;6.368;2023-09-08T07:55:23;100057.03;;;22.65;57.32
15678;BME280;7939;50.814;6.368;2023-09-08T07:57:53;100062.16;;;22.66;57.50
15678;BME280;7939;50.814;6.368;2023-09-08T08:00:20;100062.88;;;22.70;57.33
15678;BME280;7939;50.814;6.368;2023-09-08T08:02:48;100060.19;;;22.71;57.30
15678;BME280;7939;50.814;6.368;2023-09-08T08:05:15;100049.78;;;22.71;57.42
15678;BME280;7939;50.814;6.368;2023-09-08T08:07:42;100056.59;;;22.74;57.46
15678;BME280;7939;50.814;6.368;2023-09-08T08:10:10;100054.78;;;22.76;57.74
15678;BME280;7939;50.814;6.368;2023-09-08T08:12:37;100059.94;;;22.77;57.42
15678;BME280;7939;50.814;6.368;2023-09-08T08:15:05;100056.41;;;22.78;57.51
15678;BME280;7939;50.814;6.368;2023-09-08T08:17:33;100059.72;;;22.82;58.30
15678;BME280;7939;50.814;6.368;2023-09-08T08:20:01;100060.56;;;22.82;57.76
15678;BME280;7939;50.814;6.368;2023-09-08T08:22:32;100060.41;;;22.85;57.43
15678;BME280;7939;50.814;6.368;2023-09-08T08:24:58;100068.13;;;22.88;57.62
15678;BME280;7939;50.814;6.368;2023-09-08T08:27:25;100065.38;;;22.92;58.03
15678;BME280;7939;50.814;6.368;2023-09-08T08:29:52;100060.06;;;22.93;57.91
15678;BME280;7939;50.814;6.368;2023-09-08T08:32:18;100059.03;;;22.97;58.33
15678;BME280;7939;50.814;6.368;2023-09-08T08:34:46;100058.94;;;22.99;58.09
15678;BME280;7939;50.814;6.368;2023-09-08T08:37:13;100057.91;;;23.03;57.91
15678;BME280;7939;50.814;6.368;2023-09-08T08:39:39;100050.00;;;23.04;57.75
15678;BME280;7939;50.814;6.368;2023-09-08T08:42:07;100053.38;;;23.06;57.42
15678;BME280;7939;50.814;6.368;2023-09-08T08:44:34;100052.31;;;23.10;57.77
15678;BME280;7939;50.814;6.368;2023-09-08T08:47:02;100059.94;;;23.15;57.91
15678;BME280;7939;50.814;6.368;2023-09-08T08:49:31;100056.19;;;23.21;57.38
15678;BME280;7939;50.814;6.368;2023-09-08T08:51:59;100058.56;;;23.25;57.58
15678;BME280;7939;50.814;6.368;2023-09-08T08:54:29;100061.78;;;23.30;57.55
15678;BME280;7939;50.814;6.368;2023-09-08T08:56:56;100056.38;;;23.35;57.12
15678;BME280;7939;50.814;6.368;2023-09-08T08:59:23;100059.59;;;23.40;57.69
15678;BME280;7939;50.814;6.368;2023-09-08T09:01:50;100054.09;;;23.46;57.42
15678;BME280;7939;50.814;6.368;2023-09-08T09:04:17;100056.41;;;23.52;57.20
15678;BME280;7939;50.814;6.368;2023-09-08T09:06:45;100058.72;;;23.58;57.08
15678;BME280;7939;50.814;6.368;2023-09-08T09:09:13;100049.78;;;23.64;57.09
15678;BME280;7939;50.814;6.368;2023-09-08T09:11:40;100057.28;;;23.70;57.00
15678;BME280;7939;50.814;6.368;2023-09-08T09:14:08;100057.00;;;23.76;57.23
15678;BME280;7939;50.814;6.368;2023-09-08T09:16:39;100057.66;;;23.80;56.99
15678;BME280;7939;50.814;6.368;2023-09-08T09:19:05;100053.81;;;23.87;57.39
15678;BME280;7939;50.814;6.368;2023-09-08T09:21:42;100057.88;;;23.92;56.98
15678;BME280;7939;50.814;6.368;2023-09-08T09:24:14;100050.59;;;23.99;57.26
15678;BME280;7939;50.814;6.368;2023-09-08T09:26:41;100055.50;;;24.05;56.77
15678;BME280;7939;50.814;6.368;2023-09-08T09:29:12;100057.78;;;24.11;57.03
15678;BME280;7939;50.814;6.368;2023-09-08T09:31:50;100055.78;;;24.16;56.71
15678;BME280;7939;50.814;6.368;2023-09-08T09:34:17;100052.69;;;24.26;57.01
15678;BME280;7939;50.814;6.368;2023-09-08T09:36:47;100057.59;;;24.32;56.49
15678;BME280;7939;50.814;6.368;2023-09-08T09:39:17;100057.41;;;24.36;56.62
15678;BME280;7939;50.814;6.368;2023-09-08T09:41:45;100063.22;;;24.41;56.59
15678;BME280;7939;50.814;6.368;2023-09-08T09:44:12;100054.31;;;24.45;56.54
15678;BME280;7939;50.814;6.368;2023-09-08T09:46:43;100054.84;;;24.52;56.22
15678;BME280;7939;50.814;6.368;2023-09-08T09:49:10;100053.56;;;24.59;55.97
15678;BME280;7939;50.814;6.368;2023-09-08T09:51:40;100054.19;;;24.64;56.01
15678;BME280;7939;50.814;6.368;2023-09-08T09:54:07;100054.75;;;24.69;55.87
15678;BME280;7939;50.814;6.368;2023-09-08T09:56:37;100057.81;;;24.78;55.65
15678;BME280;7939;50.814;6.368;2023-09-08T09:59:04;100054.88;;;24.84;55.43
15678;BME280;7939;50.814;6.368;2023-09-08T10:01:32;100050.28;;;24.87;55.26
15678;BME280;7939;50.814;6.368;2023-09-08T10:03:59;100049.13;;;24.93;55.48
15678;BME280;7939;50.814;6.368;2023-09-08T10:06:27;100048.88;;;24.97;55.12
15678;BME280;7939;50.814;6.368;2023-09-08T10:08:54;100047.94;;;24.98;55.03
15678;BME280;7939;50.814;6.368;2023-09-08T10:11:22;100062.31;;;25.07;55.05
15678;BME280;7939;50.814;6.368;2023-09-08T10:13:53;100056.72;;;25.13;55.14
15678;BME280;7939;50.814;6.368;2023-09-08T10:16:25;100058.16;;;25.19;55.16
15678;BME280;7939;50.814;6.368;2023-09-08T10:18:52;100053.53;;;25.24;55.13
15678;BME280;7939;50.814;6.368;2023-09-08T10:21:21;100050.56;;;25.30;54.91
15678;BME280;7939;50.814;6.368;2023-09-08T10:23:59;100051.06;;;25.37;54.33
15678;BME280;7939;50.814;6.368;2023-09-08T10:26:30;100055.94;;;25.43;54.48
15678;BME280;7939;50.814;6.368;2023-09-08T10:29:01;100057.47;;;25.47;54.49
15678;BME280;7939;50.814;6.368;2023-09-08T10:31:29;100057.19;;;25.51;55.18
15678;BME280;7939;50.814;6.368;2023-09-08T10:33:56;100050.69;;;25.59;55.01
15678;BME280;7939;50.814;6.368;2023-09-08T10:36:24;100054.69;;;25.64;55.17
15678;BME280;7939;50.814;6.368;2023-09-08T10:38:51;100049.28;;;25.67;54.72
15678;BME280;7939;50.814;6.368;2023-09-08T10:41:27;100047.34;;;25.71;55.13
15678;BME280;7939;50.814;6.368;2023-09-08T10:44:07;100047.09;;;25.75;54.90
15678;BME280;7939;50.814;6.368;2023-09-08T10:46:34;100053.00;;;25.79;54.68
15678;BME280;7939;50.814;6.368;2023-09-08T10:49:02;100045.63;;;25.86;54.90
15678;BME280;7939;50.814;6.368;2023-09-08T10:51:29;100054.13;;;25.89;54.21
15678;BME280;7939;50.814;6.368;2023-09-08T10:53:56;100044.13;;;25.96;53.86
15678;BME280;7939;50.814;6.368;2023-09-08T10:56:27;100049.94;;;26.01;54.29
15678;BME280;7939;50.814;6.368;2023-09-08T10:58:54;100044.44;;;26.05;54.01
15678;BME280;7939;50.814;6.368;2023-09-08T11:01:22;100044.19;;;26.10;53.73
15678;BME280;7939;50.814;6.368;2023-09-08T11:03:52;100050.91;;;26.14;53.68
15678;BME280;7939;50.814;6.368;2023-09-08T11:06:20;100047.38;;;26.15;53.57
15678;BME280;7939;50.814;6.368;2023-09-08T11:08:48;100054.94;;;26.20;53.61
15678;BME280;7939;50.814;6.368;2023-09-08T11:11:18;100047.84;;;26.22;53.25
15678;BME280;7939;50.814;6.368;2023-09-08T11:13:45;100051.00;;;26.27;53.62
15678;BME280;7939;50.814;6.368;2023-09-08T11:16:13;100042.97;;;26.30;53.11
15678;BME280;7939;50.814;6.368;2023-09-08T11:18:41;100043.53;;;26.35;52.71
15678;BME280;7939;50.814;6.368;2023-09-08T11:21:09;100043.22;;;26.40;52.80
15678;BME280;7939;50.814;6.368;2023-09-08T11:23:36;100041.31;;;26.43;52.74
15678;BME280;7939;50.814;6.368;2023-09-08T11:26:03;100043.81;;;26.45;52.66
15678;BME280;7939;50.814;6.368;2023-09-08T11:28:31;100043.56;;;26.49;52.30
15678;BME280;7939;50.814;6.368;2023-09-08T11:30:58;100034.66;;;26.52;52.54
15678;BME280;7939;50.814;6.368;2023-09-08T11:33:25;100039.81;;;26.53;52.31
15678;BME280;7939;50.814;6.368;2023-09-08T11:35:54;100031.75;;;26.56;51.54
15678;BME280;7939;50.814;6.368;2023-09-08T11:38:24;100035.09;;;26.58;51.74
15678;BME280;7939;50.814;6.368;2023-09-08T11:40:52;100034.81;;;26.63;51.71
15678;BME280;7939;50.814;6.368;2023-09-08T11:43:19;100031.09;;;26.67;52.14
15678;BME280;7939;50.814;6.368;2023-09-08T11:45:46;100028.06;;;26.73;52.17
15678;BME280;7939;50.814;6.368;2023-09-08T11:48:14;100033.13;;;26.76;51.71
15678;BME280;7939;50.814;6.368;2023-09-08T11:50:41;100029.66;;;26.76;52.05
15678;BME280;7939;50.814;6.368;2023-09-08T11:53:09;100034.78;;;26.77;51.19
15678;BME280;7939;50.814;6.368;2023-09-08T11:55:36;100034.63;;;26.80;51.47
15678;BME280;7939;50.814;6.368;2023-09-08T11:58:03;100035.25;;;26.84;51.80
15678;BME280;7939;50.814;6.368;2023-09-08T12:00:30;100030.00;;;26.84;51.30
15678;BME280;7939;50.814;6.368;2023-09-08T12:03:09;100038.25;;;26.92;50.61
15678;BME280;7939;50.814;6.368;2023-09-08T12:05:36;100036.34;;;26.94;51.12
15678;BME280;7939;50.814;6.368;2023-09-08T12:08:04;100036.19;;;26.97;50.85
15678;BME280;7939;50.814;6.368;2023-09-08T12:10:39;100028.31;;;26.97;50.57
15678;BME280;7939;50.814;6.368;2023-09-08T12:13:06;100040.28;;;27.01;50.66
15678;BME280;7939;50.814;6.368;2023-09-08T12:15:35;100034.19;;;27.01;50.48
15678;BME280;7939;50.814;6.368;2023-09-08T12:18:03;100033.25;;;27.02;50.72
15678;BME280;7939;50.814;6.368;2023-09-08T12:20:31;100029.59;;;27.04;50.41
15678;BME280;7939;50.814;6.368;2023-09-08T12:22:59;100027.63;;;27.08;50.71
15678;BME280;7939;50.814;6.368;2023-09-08T12:25:27;100023.03;;;27.11;50.53
15678;BME280;7939;50.814;6.368;2023-09-08T12:27:58;100029.31;;;27.09;50.37
15678;BME280;7939;50.814;6.368;2023-09-08T12:30:25;100028.28;;;27.11;50.37
15678;BME280;7939;50.814;6.368;2023-09-08T12:32:56;100022.94;;;27.13;50.46
15678;BME280;7939;50.814;6.368;2023-09-08T12:35:24;100017.06;;;27.09;50.22
15678;BME280;7939;50.814;6.368;2023-09-08T12:37:57;100022.09;;;27.12;50.11
15678;BME280;7939;50.814;6.368;2023-09-08T12:40:25;100016.84;;;27.12;50.23
15678;BME280;7939;50.814;6.368;2023-09-08T12:42:51;100015.06;;;27.13;50.14
15678;BME280;7939;50.814;6.368;2023-09-08T12:45:20;100016.75;;;27.14;50.24
15678;BME280;7939;50.814;6.368;2023-09-08T12:47:47;100015.72;;;27.17;50.24
15678;BME280;7939;50.814;6.368;2023-09-08T12:50:13;100018.22;;;27.18;49.96
15678;BME280;7939;50.814;6.368;2023-09-08T12:52:40;100012.97;;;27.18;50.63
15678;BME280;7939;50.814;6.368;2023-09-08T12:55:07;100012.78;;;27.21;50.40
15678;BME280;7939;50.814;6.368;2023-09-08T12:57:34;100006.59;;;27.22;49.89
15678;BME280;7939;50.814;6.368;2023-09-08T13:00:01;100009.22;;;27.22;50.17
15678;BME280;7939;50.814;6.368;2023-09-08T13:02:29;100007.34;;;27.24;50.63